sensor_id;sensor_type;location;lat;lon;timestamp;pressure;altitude;pressure_sealevel;temperature;humidity
36600;BME280;35385;55.668;37.508;2023-05-29T00:00:33;99528.88;;;11.76;100.00
36600;BME280;35385;55.668;37.508;2023-05-29T00:01:33;99529.72;;;11.76;100.00
36600;BME280;35385;55.668;37.508;2023-05-29T00:02:36;99530.78;;;11.74;100.00
36600;BME280;35385;55.668;37.508;2023-05-29T00:03:36;99526.44;;;11.73;100.00
36600;BME280;35385;55.668;37.508;2023-05-29T00:04:36;99528.25;;;11.72;100.00
36600;BME280;35385;55.668;37.508;2023-05-29T00:05:37;99532.75;;;11.72;100.00
36600;BME280;35385;55.668;37.508;2023-05-29T00:06:37;99534.44;;;11.73;100.00
36600;BME280;35385;55.668;37.508;2023-05-29T00:07:38;99530.78;;;11.74;100.00
36600;BME280;35385;55.668;37.508;2023-05-29T00:08:39;99535.03;;;11.66;100.00
36600;BME280;35385;55.668;37.508;2023-05-29T00:09:39;99531.91;;;11.61;100.00
36600;BME280;35385;55.668;37.508;2023-05-29T00:10:40;99531.91;;;11.61;100.00
36600;BME280;35385;55.668;37.508;2023-05-29T00:11:40;99543.72;;;11.59;100.00
36600;BME280;35385;55.668;37.508;2023-05-29T00:12:40;99536.09;;;11.54;100.00
36600;BME280;35385;55.668;37.508;2023-05-29T00:13:41;99541.16;;;11.57;100.00
36600;BME280;35385;55.668;37.508;2023-05-29T00:14:41;99539.91;;;11.61;100.00
36600;BME280;35385;55.668;37.508;2023-05-29T00:15:41;99543.91;;;11.67;100.00
36600;BME280;35385;55.668;37.508;2023-05-29T00:16:42;99542.34;;;11.64;100.00
36600;BME280;35385;55.668;37.508;2023-05-29T00:17:44;99540.38;;;11.66;100.00
36600;BME280;35385;55.668;37.508;2023-05-29T00:18:44;99540.91;;;11.70;100.00
36600;BME280;35385;55.668;37.508;2023-05-29T00:19:46;99544.03;;;11.65;100.00
36600;BME280;35385;55.668;37.508;2023-05-29T00:20:46;99502.69;;;11.39;100.00
36600;BME280;35385;55.668;37.508;2023-05-29T00:21:47;99541.63;;;11.62;100.00
36600;BME280;35385;55.668;37.508;2023-05-29T00:22:48;99543.19;;;11.65;100.00
36600;BME280;35385;55.668;37.508;2023-05-29T00:23:49;99543.75;;;11.68;100.00
36600;BME280;35385;55.668;37.508;2023-05-29T00:24:50;99544.56;;;11.69;100.00
36600;BME280;35385;55.668;37.508;2023-05-29T00:25:50;99545.72;;;11.66;100.00
36600;BME280;35385;55.668;37.508;2023-05-29T00:26:50;99536.41;;;11.61;100.00
36600;BME280;35385;55.668;37.508;2023-05-29T00:27:51;99541.16;;;11.57;100.00
36600;BME280;35385;55.668;37.508;2023-05-29T00:28:51;99540.75;;;11.52;100.00
36600;BME280;35385;55.668;37.508;2023-05-29T00:29:51;99545.13;;;11.53;100.00
36600;BME280;35385;55.668;37.508;2023-05-29T00:30:52;99550.00;;;11.48;100.00
36600;BME280;35385;55.668;37.508;2023-05-29T00:31:52;99543.09;;;11.46;100.00
36600;BME280;35385;55.668;37.508;2023-05-29T00:32:53;99546.63;;;11.46;100.00
36600;BME280;35385;55.668;37.508;2023-05-29T00:33:54;99546.63;;;11.46;100.00
36600;BME280;35385;55.668;37.508;2023-05-29T00:34:54;99549.16;;;11.48;100.00
36600;BME280;35385;55.668;37.508;2023-05-29T00:35:55;99550.00;;;11.48;100.00
36600;BME280;35385;55.668;37.508;2023-05-29T00:36:56;99549.31;;;11.46;100.00
36600;BME280;35385;55.668;37.508;2023-05-29T00:37:57;99545.91;;;11.44;100.00
36600;BME280;35385;55.668;37.508;2023-05-29T00:38:57;99542.50;;;11.42;100.00
36600;BME280;35385;55.668;37.508;2023-05-29T00:39:58;99546.75;;;11.45;100.00
36600;BME280;35385;55.668;37.508;2023-05-29T00:40:58;99549.31;;;11.46;100.00
36600;BME280;35385;55.668;37.508;2023-05-29T00:41:59;99541.28;;;11.46;100.00
36600;BME280;35385;55.668;37.508;2023-05-29T00:42:59;99549.31;;;11.46;100.00
36600;BME280;35385;55.668;37.508;2023-05-29T00:43:59;99538.34;;;11.49;100.00
36600;BME280;35385;55.668;37.508;2023-05-29T00:45:00;99537.50;;;11.49;100.00
36600;BME280;35385;55.668;37.508;2023-05-29T00:46:00;99539.06;;;11.51;100.00
36600;BME280;35385;55.668;37.508;2023-05-29T00:47:01;99542.00;;;11.48;100.00
36600;BME280;35385;55.668;37.508;2023-05-29T00:48:02;99536.91;;;11.45;100.00
36600;BME280;35385;55.668;37.508;2023-05-29T00:49:03;99538.88;;;11.43;100.00
36600;BME280;35385;55.668;37.508;2023-05-29T00:50:04;99533.78;;;11.40;100.00
36600;BME280;35385;55.668;37.508;2023-05-29T00:51:05;99537.72;;;11.36;100.00
36600;BME280;35385;55.668;37.508;2023-05-29T00:52:05;99543.34;;;11.33;100.00
36600;BME280;35385;55.668;37.508;2023-05-29T00:53:07;99543.34;;;11.33;100.00
36600;BME280;35385;55.668;37.508;2023-05-29T00:54:08;99543.78;;;11.38;100.00
36600;BME280;35385;55.668;37.508;2023-05-29T00:55:11;99547.88;;;11.42;100.00
36600;BME280;35385;55.668;37.508;2023-05-29T00:56:12;99546.63;;;11.46;100.00
36600;BME280;35385;55.668;37.508;2023-05-29T00:57:13;99549.03;;;11.49;100.00
36600;BME280;35385;55.668;37.508;2023-05-29T00:58:14;99552.81;;;11.47;100.00
36600;BME280;35385;55.668;37.508;2023-05-29T00:59:14;99545.91;;;11.44;100.00
36600;BME280;35385;55.668;37.508;2023-05-29T01:00:15;99550.16;;;11.47;100.00
36600;BME280;35385;55.668;37.508;2023-05-29T01:01:19;99553.41;;;11.50;100.00
36600;BME280;35385;55.668;37.508;2023-05-29T01:02:21;99549.63;;;11.53;100.00
36600;BME280;35385;55.668;37.508;2023-05-29T01:03:22;99547.06;;;11.51;100.00
36600;BME280;35385;55.668;37.508;2023-05-29T01:04:23;99548.47;;;11.55;100.00
36600;BME280;35385;55.668;37.508;2023-05-29T01:05:25;99558.06;;;11.58;100.00
36600;BME280;35385;55.668;37.508;2023-05-29T01:06:26;99552.31;;;11.62;100.00
36600;BME280;35385;55.668;37.508;2023-05-29T01:07:26;99555.72;;;11.64;100.00
36600;BME280;35385;55.668;37.508;2023-05-29T01:08:26;99556.56;;;11.65;100.00
36600;BME280;35385;55.668;37.508;2023-05-29T01:09:28;99551.34;;;11.63;100.00
36600;BME280;35385;55.668;37.508;2023-05-29T01:10:29;99546.00;;;11.63;100.00
36600;BME280;35385;55.668;37.508;2023-05-29T01:11:32;99554.84;;;11.64;100.00
36600;BME280;35385;55.668;37.508;2023-05-29T01:13:37;99556.69;;;11.63;100.00
36600;BME280;35385;55.668;37.508;2023-05-29T01:17:13;99556.09;;;11.50;100.00
36600;BME280;35385;55.668;37.508;2023-05-29T01:18:39;99558.31;;;11.45;100.00
36600;BME280;35385;55.668;37.508;2023-05-29T01:20:48;99560.00;;;11.46;100.00
36600;BME280;35385;55.668;37.508;2023-05-29T01:22:11;99561.69;;;11.47;100.00
36600;BME280;35385;55.668;37.508;2023-05-29T01:24:19;99560.31;;;11.53;100.00
36600;BME280;35385;55.668;37.508;2023-05-29T01:27:46;99559.72;;;11.49;100.00
36600;BME280;35385;55.668;37.508;2023-05-29T01:28:48;99551.84;;;11.48;100.00
36600;BME280;35385;55.668;37.508;2023-05-29T01:29:49;99561.81;;;11.46;100.00
36600;BME280;35385;55.668;37.508;2023-05-29T01:30:50;99556.88;;;11.41;100.00
36600;BME280;35385;55.668;37.508;2023-05-29T01:31:51;99559.00;;;11.38;100.00
36600;BME280;35385;55.668;37.508;2023-05-29T01:32:53;99557.84;;;11.40;100.00
36600;BME280;35385;55.668;37.508;2023-05-29T01:33:57;99563.19;;;11.40;100.00
36600;BME280;35385;55.668;37.508;2023-05-29T01:34:58;99561.38;;;11.41;100.00
36600;BME280;35385;55.668;37.508;2023-05-29T01:35:58;99569.56;;;11.39;100.00
36600;BME280;35385;55.668;37.508;2023-05-29T01:36:59;99557.16;;;11.38;100.00
36600;BME280;35385;55.668;37.508;2023-05-29T01:37:59;99558.56;;;11.42;100.00
36600;BME280;35385;55.668;37.508;2023-05-29T01:39:00;99563.91;;;11.42;100.00
36600;BME280;35385;55.668;37.508;2023-05-29T01:40:00;99562.22;;;11.41;100.00
36600;BME280;35385;55.668;37.508;2023-05-29T01:41:01;99562.50;;;11.38;100.00
36600;BME280;35385;55.668;37.508;2023-05-29T01:42:03;99562.63;;;11.37;100.00
36600;BME280;35385;55.668;37.508;2023-05-29T01:43:05;99565.44;;;11.35;100.00
36600;BME280;35385;55.668;37.508;2023-05-29T01:44:06;99557.03;;;11.40;100.00
36600;BME280;35385;55.668;37.508;2023-05-29T01:45:08;99564.63;;;11.44;100.00
36600;BME280;35385;55.668;37.508;2023-05-29T01:46:09;99567.03;;;11.47;100.00
36600;BME280;35385;55.668;37.508;2023-05-29T01:47:10;99566.53;;;11.53;100.00
36600;BME280;35385;55.668;37.508;2023-05-29T01:48:10;99569.88;;;11.55;100.00
36600;BME280;35385;55.668;37.508;2023-05-29T01:49:11;99569.75;;;11.57;100.00
36600;BME280;35385;55.668;37.508;2023-05-29T01:50:11;99563.53;;;11.56;100.00
36600;BME280;35385;55.668;37.508;2023-05-29T01:51:13;99570.47;;;11.59;100.00
36600;BME280;35385;55.668;37.508;2023-05-29T01:52:14;99574.69;;;11.61;100.00
36600;BME280;35385;55.668;37.508;2023-05-29T01:53:14;99567.53;;;11.62;100.00
36600;BME280;35385;55.668;37.508;2023-05-29T01:54:15;99573.59;;;11.64;100.00
36600;BME280;35385;55.668;37.508;2023-05-29T01:55:15;99571.63;;;11.66;100.00
36600;BME280;35385;55.668;37.508;2023-05-29T01:56:16;99571.34;;;11.69;100.00
36600;BME280;35385;55.668;37.508;2023-05-29T01:57:16;99571.63;;;11.66;100.00
36600;BME280;35385;55.668;37.508;2023-05-29T01:58:17;99574.44;;;11.64;100.00
36600;BME280;35385;55.668;37.508;2023-05-29T01:59:18;99566.41;;;11.64;100.00
36600;BME280;35385;55.668;37.508;2023-05-29T02:00:19;99568.09;;;11.65;100.00
36600;BME280;35385;55.668;37.508;2023-05-29T02:01:23;99565.97;;;11.69;100.00
36600;BME280;35385;55.668;37.508;2023-05-29T02:02:24;99574.72;;;11.71;100.00
36600;BME280;35385;55.668;37.508;2023-05-29T02:03:24;99577.25;;;11.73;100.00
36600;BME280;35385;55.668;37.508;2023-05-29T02:04:25;99571.91;;;11.73;100.00
36600;BME280;35385;55.668;37.508;2023-05-29T02:05:25;99571.69;;;11.76;100.00
36600;BME280;35385;55.668;37.508;2023-05-29T02:06:25;99577.63;;;11.79;100.00
36600;BME280;35385;55.668;37.508;2023-05-29T02:07:26;99574.81;;;11.81;100.00
36600;BME280;35385;55.668;37.508;2023-05-29T02:08:26;99576.50;;;11.82;100.00
36600;BME280;35385;55.668;37.508;2023-05-29T02:09:27;99566.31;;;11.76;100.00
36600;BME280;35385;55.668;37.508;2023-05-29T02:10:27;99576.28;;;11.74;100.00
36600;BME280;35385;55.668;37.508;2023-05-29T02:11:27;99574.59;;;11.73;100.00
36600;BME280;35385;55.668;37.508;2023-05-29T02:12:28;99571.50;;;11.67;100.00
36600;BME280;35385;55.668;37.508;2023-05-29T02:13:28;99576.97;;;11.66;100.00
36600;BME280;35385;55.668;37.508;2023-05-29T02:14:29;99579.53;;;11.67;100.00
36600;BME280;35385;55.668;37.508;2023-05-29T02:15:32;99579.53;;;11.67;100.00
36600;BME280;35385;55.668;37.508;2023-05-29T02:16:32;99581.22;;;11.68;100.00
36600;BME280;35385;55.668;37.508;2023-05-29T02:17:34;99574.16;;;11.67;100.00
36600;BME280;35385;55.668;37.508;2023-05-29T02:18:34;99570.78;;;11.65;100.00
36600;BME280;35385;55.668;37.508;2023-05-29T02:19:35;99576.13;;;11.65;100.00
36600;BME280;35385;55.668;37.508;2023-05-29T02:20:36;99577.38;;;11.61;100.00
36600;BME280;35385;55.668;37.508;2023-05-29T02:21:40;99580.03;;;11.61;100.00
36600;BME280;35385;55.668;37.508;2023-05-29T02:22:43;99586.84;;;11.65;100.00
36600;BME280;35385;55.668;37.508;2023-05-29T02:23:43;99582.19;;;11.67;100.00
36600;BME280;35385;55.668;37.508;2023-05-29T02:24:44;99575.88;;;11.68;100.00
36600;BME280;35385;55.668;37.508;2023-05-29T02:25:45;99588.22;;;11.69;100.00
36600;BME280;35385;55.668;37.508;2023-05-29T02:26:47;99586.28;;;11.72;100.00
36600;BME280;35385;55.668;37.508;2023-05-29T02:27:48;99583.59;;;11.72;100.00
36600;BME280;35385;55.668;37.508;2023-05-29T02:28:48;99581.63;;;11.74;100.00
36600;BME280;35385;55.668;37.508;2023-05-29T02:29:48;99580.66;;;11.75;100.00
36600;BME280;35385;55.668;37.508;2023-05-29T02:30:49;99587.75;;;11.76;100.00
36600;BME280;35385;55.668;37.508;2023-05-29T02:31:49;99580.41;;;11.78;100.00
36600;BME280;35385;55.668;37.508;2023-05-29T02:32:49;99580.16;;;11.81;100.00
36600;BME280;35385;55.668;37.508;2023-05-29T02:33:50;99585.38;;;11.82;100.00
36600;BME280;35385;55.668;37.508;2023-05-29T02:34:51;99579.84;;;11.84;100.00
36600;BME280;35385;55.668;37.508;2023-05-29T02:35:52;99577.91;;;11.86;100.00
36600;BME280;35385;55.668;37.508;2023-05-29T02:36:52;99587.50;;;11.88;100.00
36600;BME280;35385;55.668;37.508;2023-05-29T02:37:54;99581.03;;;11.91;100.00
36600;BME280;35385;55.668;37.508;2023-05-29T02:38:54;99579.19;;;11.91;100.00
36600;BME280;35385;55.668;37.508;2023-05-29T02:39:54;99579.31;;;11.90;100.00
36600;BME280;35385;55.668;37.508;2023-05-29T02:40:55;99590.75;;;11.92;100.00
36600;BME280;35385;55.668;37.508;2023-05-29T02:41:55;99580.63;;;11.95;100.00
36600;BME280;35385;55.668;37.508;2023-05-29T02:42:55;99577.50;;;12.00;100.00
36600;BME280;35385;55.668;37.508;2023-05-29T02:43:56;99580.91;;;12.02;100.00
36600;BME280;35385;55.668;37.508;2023-05-29T02:44:56;99576.13;;;12.06;100.00
36600;BME280;35385;55.668;37.508;2023-05-29T02:45:57;99582.78;;;12.11;100.00
36600;BME280;35385;55.668;37.508;2023-05-29T02:46:57;99576.84;;;12.17;100.00
36600;BME280;35385;55.668;37.508;2023-05-29T02:47:58;99586.72;;;12.26;100.00
36600;BME280;35385;55.668;37.508;2023-05-29T02:48:59;99578.41;;;12.29;100.00
36600;BME280;35385;55.668;37.508;2023-05-29T02:50:00;99583.50;;;12.32;100.00
36600;BME280;35385;55.668;37.508;2023-05-29T02:51:00;99582.22;;;12.36;100.00
36600;BME280;35385;55.668;37.508;2023-05-29T02:52:01;99579.13;;;12.41;100.00
36600;BME280;35385;55.668;37.508;2023-05-29T02:53:01;99583.06;;;12.47;100.00
36600;BME280;35385;55.668;37.508;2023-05-29T02:54:02;99582.53;;;12.53;100.00
36600;BME280;35385;55.668;37.508;2023-05-29T02:55:03;99581.94;;;12.59;100.00
36600;BME280;35385;55.668;37.508;2023-05-29T02:56:05;99587.31;;;12.59;100.00
36600;BME280;35385;55.668;37.508;2023-05-29T02:57:06;99582.22;;;12.56;100.00
36600;BME280;35385;55.668;37.508;2023-05-29T02:58:06;99585.19;;;12.53;100.00
36600;BME280;35385;55.668;37.508;2023-05-29T02:59:07;99586.19;;;12.52;100.00
36600;BME280;35385;55.668;37.508;2023-05-29T03:00:08;99585.91;;;12.55;100.00
36600;BME280;35385;55.668;37.508;2023-05-29T03:01:09;99586.59;;;12.57;100.00
36600;BME280;35385;55.668;37.508;2023-05-29T03:02:09;99588.28;;;12.58;100.00
36600;BME280;35385;55.668;37.508;2023-05-29T03:03:10;99591.94;;;12.57;100.00
36600;BME280;35385;55.668;37.508;2023-05-29T03:04:10;99594.94;;;12.63;100.00
36600;BME280;35385;55.668;37.508;2023-05-29T03:05:11;99599.72;;;12.69;100.00
36600;BME280;35385;55.668;37.508;2023-05-29T03:06:11;99596.34;;;12.77;100.00
36600;BME280;35385;55.668;37.508;2023-05-29T03:07:16;99595.78;;;12.83;100.00
36600;BME280;35385;55.668;37.508;2023-05-29T03:08:16;99598.72;;;12.90;100.00
36600;BME280;35385;55.668;37.508;2023-05-29T03:09:18;99605.34;;;12.95;100.00
36600;BME280;35385;55.668;37.508;2023-05-29T03:10:18;99599.72;;;12.98;100.00
36600;BME280;35385;55.668;37.508;2023-05-29T03:11:18;99601.69;;;12.96;100.00
36600;BME280;35385;55.668;37.508;2023-05-29T03:12:19;99604.38;;;12.96;100.00
36600;BME280;35385;55.668;37.508;2023-05-29T03:13:19;99600.00;;;12.95;100.00
36600;BME280;35385;55.668;37.508;2023-05-29T03:14:20;99597.31;;;12.95;100.00
36600;BME280;35385;55.668;37.508;2023-05-29T03:15:21;99599.72;;;12.98;100.00
36600;BME280;35385;55.668;37.508;2023-05-29T03:16:21;99602.22;;;13.00;100.00
36600;BME280;35385;55.668;37.508;2023-05-29T03:17:22;99600.94;;;13.04;100.00
36600;BME280;35385;55.668;37.508;2023-05-29T03:18:22;99602.66;;;13.05;100.00
36600;BME280;35385;55.668;37.508;2023-05-29T03:19:23;99614.09;;;12.97;100.00
36600;BME280;35385;55.668;37.508;2023-05-29T03:20:24;99612.69;;;12.93;100.00
36600;BME280;35385;55.668;37.508;2023-05-29T03:21:24;99607.75;;;12.89;100.00
36600;BME280;35385;55.668;37.508;2023-05-29T03:22:24;99607.88;;;12.87;100.00
36600;BME280;35385;55.668;37.508;2023-05-29T03:23:25;99611.84;;;12.93;100.00
36600;BME280;35385;55.668;37.508;2023-05-29T03:24:25;99617.19;;;12.93;100.00
36600;BME280;35385;55.668;37.508;2023-05-29T03:25:26;99609.03;;;12.94;100.00
36600;BME280;35385;55.668;37.508;2023-05-29T03:26:26;99610.72;;;12.95;100.00
36600;BME280;35385;55.668;37.508;2023-05-29T03:27:27;99618.06;;;12.93;100.00
36600;BME280;35385;55.668;37.508;2023-05-29T03:28:27;99608.88;;;12.96;100.00
36600;BME280;35385;55.668;37.508;2023-05-29T03:29:27;99616.34;;;13.02;100.00
36600;BME280;35385;55.668;37.508;2023-05-29T03:30:28;99618.59;;;13.06;100.00
36600;BME280;35385;55.668;37.508;2023-05-29T03:31:28;99622.38;;;13.14;100.00
36600;BME280;35385;55.668;37.508;2023-05-29T03:32:28;99614.66;;;13.20;100.00
36600;BME280;35385;55.668;37.508;2023-05-29T03:33:29;99612.81;;;13.11;100.00
36600;BME280;35385;55.668;37.508;2023-05-29T03:34:29;99609.69;;;13.06;100.00
36600;BME280;35385;55.668;37.508;2023-05-29T03:35:30;99609.84;;;13.04;100.00
36600;BME280;35385;55.668;37.508;2023-05-29T03:36:30;99612.25;;;13.07;100.00
36600;BME280;35385;55.668;37.508;2023-05-29T03:37:32;99615.50;;;13.11;100.00
36600;BME280;35385;55.668;37.508;2023-05-29T03:38:32;99612.09;;;13.19;100.00
36600;BME280;35385;55.668;37.508;2023-05-29T03:39:32;99620.81;;;13.30;100.00
36600;BME280;35385;55.668;37.508;2023-05-29T03:40:33;99617.44;;;13.28;100.00
36600;BME280;35385;55.668;37.508;2023-05-29T03:41:33;99617.72;;;13.35;100.00
36600;BME280;35385;55.668;37.508;2023-05-29T03:42:33;99616.03;;;13.34;100.00
36600;BME280;35385;55.668;37.508;2023-05-29T03:43:34;99620.25;;;13.36;100.00
36600;BME280;35385;55.668;37.508;2023-05-29T03:44:35;99620.13;;;13.38;100.00
36600;BME280;35385;55.668;37.508;2023-05-29T03:45:35;99624.06;;;13.34;100.00
36600;BME280;35385;55.668;37.508;2023-05-29T03:46:35;99619.56;;;13.34;100.00
36600;BME280;35385;55.668;37.508;2023-05-29T03:47:36;99618.53;;;13.45;100.00
36600;BME280;35385;55.668;37.508;2023-05-29T03:48:36;99614.56;;;13.49;100.00
36600;BME280;35385;55.668;37.508;2023-05-29T03:49:36;99617.69;;;13.54;100.00
36600;BME280;35385;55.668;37.508;2023-05-29T03:50:37;99620.03;;;13.57;100.00
36600;BME280;35385;55.668;37.508;2023-05-29T03:51:37;99621.34;;;13.53;100.00
36600;BME280;35385;55.668;37.508;2023-05-29T03:52:38;99632.78;;;13.55;100.00
36600;BME280;35385;55.668;37.508;2023-05-29T03:53:38;99619.31;;;13.65;100.00
36600;BME280;35385;55.668;37.508;2023-05-29T03:54:38;99626.88;;;13.79;100.00
36600;BME280;35385;55.668;37.508;2023-05-29T03:55:39;99626.03;;;13.78;100.00
36600;BME280;35385;55.668;37.508;2023-05-29T03:56:39;99633.53;;;13.85;100.00
36600;BME280;35385;55.668;37.508;2023-05-29T03:57:40;99633.91;;;13.90;100.00
36600;BME280;35385;55.668;37.508;2023-05-29T03:58:41;99637.84;;;13.95;100.00
36600;BME280;35385;55.668;37.508;2023-05-29T03:59:41;99638.53;;;13.97;100.00
36600;BME280;35385;55.668;37.508;2023-05-29T04:00:41;99628.66;;;13.98;100.00
36600;BME280;35385;55.668;37.508;2023-05-29T04:01:42;99634.03;;;13.98;100.00
36600;BME280;35385;55.668;37.508;2023-05-29T04:02:42;99637.00;;;13.95;100.00
36600;BME280;35385;55.668;37.508;2023-05-29T04:03:43;99635.38;;;14.02;100.00
36600;BME280;35385;55.668;37.508;2023-05-29T04:04:45;99635.38;;;14.02;100.00
36600;BME280;35385;55.668;37.508;2023-05-29T04:05:45;99634.25;;;14.04;100.00
36600;BME280;35385;55.668;37.508;2023-05-29T04:06:45;99635.81;;;14.07;100.00
36600;BME280;35385;55.668;37.508;2023-05-29T04:07:46;99634.19;;;14.14;100.00
36600;BME280;35385;55.668;37.508;2023-05-29T04:08:46;99631.50;;;14.14;100.00
36600;BME280;35385;55.668;37.508;2023-05-29T04:09:47;99635.38;;;14.29;100.00
36600;BME280;35385;55.668;37.508;2023-05-29T04:10:47;99639.88;;;14.38;100.00
36600;BME280;35385;55.668;37.508;2023-05-29T04:11:47;99641.38;;;14.50;100.00
36600;BME280;35385;55.668;37.508;2023-05-29T04:12:48;99640.13;;;14.63;100.00
36600;BME280;35385;55.668;37.508;2023-05-29T04:13:48;99638.84;;;14.67;100.00
36600;BME280;35385;55.668;37.508;2023-05-29T04:14:49;99637.00;;;14.67;100.00
36600;BME280;35385;55.668;37.508;2023-05-29T04:15:49;99642.59;;;14.74;100.00
36600;BME280;35385;55.668;37.508;2023-05-29T04:16:53;99638.31;;;14.81;100.00
36600;BME280;35385;55.668;37.508;2023-05-29T04:17:53;99645.81;;;14.77;100.00
36600;BME280;35385;55.668;37.508;2023-05-29T04:18:54;99635.22;;;14.76;100.00
36600;BME280;35385;55.668;37.508;2023-05-29T04:19:55;99630.41;;;14.79;100.00
36600;BME280;35385;55.668;37.508;2023-05-29T04:20:55;99635.75;;;14.97;100.00
36600;BME280;35385;55.668;37.508;2023-05-29T04:21:56;99634.56;;;15.17;100.00
36600;BME280;35385;55.668;37.508;2023-05-29T04:22:56;99628.00;;;15.12;100.00
36600;BME280;35385;55.668;37.508;2023-05-29T04:23:56;99639.25;;;15.15;100.00
36600;BME280;35385;55.668;37.508;2023-05-29T04:24:57;99641.59;;;15.10;100.00
36600;BME280;35385;55.668;37.508;2023-05-29T04:25:57;99632.81;;;15.26;100.00
36600;BME280;35385;55.668;37.508;2023-05-29T04:26:57;99634.66;;;15.08;100.00
36600;BME280;35385;55.668;37.508;2023-05-29T04:28:00;99634.00;;;15.32;100.00
36600;BME280;35385;55.668;37.508;2023-05-29T04:29:02;99635.50;;;15.52;100.00
36600;BME280;35385;55.668;37.508;2023-05-29T04:30:06;99636.06;;;15.55;100.00
36600;BME280;35385;55.668;37.508;2023-05-29T04:31:07;99635.25;;;15.63;100.00
36600;BME280;35385;55.668;37.508;2023-05-29T04:32:08;99642.25;;;15.82;100.00
36600;BME280;35385;55.668;37.508;2023-05-29T04:33:09;99634.28;;;16.06;100.00
36600;BME280;35385;55.668;37.508;2023-05-29T04:34:12;99637.91;;;16.31;100.00
36600;BME280;35385;55.668;37.508;2023-05-29T04:35:17;99632.56;;;16.47;100.00
36600;BME280;35385;55.668;37.508;2023-05-29T04:36:17;99642.81;;;16.36;100.00
36600;BME280;35385;55.668;37.508;2023-05-29T04:37:19;99645.66;;;16.34;100.00
36600;BME280;35385;55.668;37.508;2023-05-29T04:38:21;99642.34;;;16.48;100.00
36600;BME280;35385;55.668;37.508;2023-05-29T04:39:25;99646.31;;;16.70;100.00
36600;BME280;35385;55.668;37.508;2023-05-29T04:40:25;99647.50;;;16.92;100.00
36600;BME280;35385;55.668;37.508;2023-05-29T04:41:26;99650.56;;;17.13;100.00
36600;BME280;35385;55.668;37.508;2023-05-29T04:42:31;99658.47;;;17.31;100.00
36600;BME280;35385;55.668;37.508;2023-05-29T04:43:33;99654.25;;;17.45;100.00
36600;BME280;35385;55.668;37.508;2023-05-29T04:44:36;99653.03;;;17.55;100.00
36600;BME280;35385;55.668;37.508;2023-05-29T04:45:36;99652.72;;;17.66;100.00
36600;BME280;35385;55.668;37.508;2023-05-29T04:46:37;99658.91;;;17.83;99.19
36600;BME280;35385;55.668;37.508;2023-05-29T04:47:38;99661.75;;;17.98;99.13
36600;BME280;35385;55.668;37.508;2023-05-29T04:48:44;99658.16;;;18.06;97.72
36600;BME280;35385;55.668;37.508;2023-05-29T04:49:45;99653.97;;;18.03;95.21
36600;BME280;35385;55.668;37.508;2023-05-29T04:50:49;99653.13;;;17.94;90.74
36600;BME280;35385;55.668;37.508;2023-05-29T04:51:49;99650.44;;;18.02;91.04
36600;BME280;35385;55.668;37.508;2023-05-29T04:52:52;99661.69;;;18.14;91.00
36600;BME280;35385;55.668;37.508;2023-05-29T04:53:53;99657.94;;;18.23;89.60
36600;BME280;35385;55.668;37.508;2023-05-29T04:54:53;99659.09;;;18.29;89.05
36600;BME280;35385;55.668;37.508;2023-05-29T04:55:54;99664.09;;;18.40;86.23
36600;BME280;35385;55.668;37.508;2023-05-29T04:56:54;99657.94;;;18.54;85.48
36600;BME280;35385;55.668;37.508;2023-05-29T04:57:55;99663.16;;;18.64;84.12
36600;BME280;35385;55.668;37.508;2023-05-29T04:58:55;99666.78;;;18.79;82.59
36600;BME280;35385;55.668;37.508;2023-05-29T04:59:56;99659.94;;;18.91;82.43
36600;BME280;35385;55.668;37.508;2023-05-29T05:00:56;99663.72;;;19.05;82.17
36600;BME280;35385;55.668;37.508;2023-05-29T05:01:57;99668.72;;;19.16;81.56
36600;BME280;35385;55.668;37.508;2023-05-29T05:02:58;99659.31;;;19.27;80.88
36600;BME280;35385;55.668;37.508;2023-05-29T05:03:59;99658.47;;;19.26;79.93
36600;BME280;35385;55.668;37.508;2023-05-29T05:04:59;99660.34;;;19.26;78.27
36600;BME280;35385;55.668;37.508;2023-05-29T05:06:00;99664.47;;;19.36;78.10
36600;BME280;35385;55.668;37.508;2023-05-29T05:07:02;99659.97;;;19.52;78.10
36600;BME280;35385;55.668;37.508;2023-05-29T05:08:03;99659.13;;;19.66;78.31
36600;BME280;35385;55.668;37.508;2023-05-29T05:09:03;99659.75;;;19.76;78.32
36600;BME280;35385;55.668;37.508;2023-05-29T05:10:04;99663.91;;;19.78;77.11
36600;BME280;35385;55.668;37.508;2023-05-29T05:11:05;99660.66;;;19.83;76.00
36600;BME280;35385;55.668;37.508;2023-05-29T05:12:06;99628.50;;;19.80;75.23
36600;BME280;35385;55.668;37.508;2023-05-29T05:13:07;99663.09;;;20.07;75.77
36600;BME280;35385;55.668;37.508;2023-05-29T05:14:07;99662.63;;;20.19;75.92
36600;BME280;35385;55.668;37.508;2023-05-29T05:15:08;99660.47;;;20.29;74.99
36600;BME280;35385;55.668;37.508;2023-05-29T05:16:08;99663.47;;;20.34;73.32
36600;BME280;35385;55.668;37.508;2023-05-29T05:17:09;99658.13;;;20.40;72.45
36600;BME280;35385;55.668;37.508;2023-05-29T05:18:09;99657.19;;;20.48;72.33
36600;BME280;35385;55.668;37.508;2023-05-29T05:19:10;99660.91;;;20.62;72.01
36600;BME280;35385;55.668;37.508;2023-05-29T05:20:10;99661.50;;;20.78;71.78
36600;BME280;35385;55.668;37.508;2023-05-29T05:21:11;99663.06;;;20.88;71.67
36600;BME280;35385;55.668;37.508;2023-05-29T05:22:11;99657.03;;;20.92;71.19
36600;BME280;35385;55.668;37.508;2023-05-29T05:23:12;99656.34;;;21.05;71.12